PON weather

PoptĂșn Airport
PoptĂșn, Peten, Guatemala

Public forecast

Using degrees Celsius for public forecast. Weather courtesy of forecast.io.

METAR (pilot weather report)

Closest report is Mundo Maya International Airport, 43.8 nm (81.1 km) NW. Retrieved 2019/02/20 10:00 UTC (59 minutes ago):

MGMM 201000Z 00000KT CAVOK 21/20 Q1012 A2988

TAF (pilot weather forecast)

Forecast is more than 12 hours old.

Closest forecast is Mundo Maya International Airport, 43.8 nm (81.1 km) NW. Retrieved 2019/02/19 00:00 UTC (1 day ago):

TAF MGMM 192300Z 2000/2024 00000KT CAVOK TX38/2020Z TN20/2012Z PROB30 2010/2014 5000 BR SCT010 BECMG 2015/2017 09008KT FEW018 TEMPO 2018/2024 SCT020